Time;durP1;ratioP1;P1;durP2;ratioP2;P2;SDS_P1;SDS_P2;PMS_P1;PMS_P2;Temp;Humidity;BMP_temperature;BMP_pressure;BME280_temperature;BME280_humidity;BME280_pressure;Samples;Min_cycle;Max_cycle;Signal;HPM_P1;HPM_P2
2023/06/06 00:00:48;;;;;;;1999.90;999.90;;;19.20;99.90;;;;;;5014845;28;20041;-83
2023/06/06 00:03:13;;;;;;;1999.90;999.90;;;19.20;99.90;;;;;;5024792;28;20167;-83
2023/06/06 00:05:39;;;;;;;1999.90;999.90;;;19.10;99.90;;;;;;5035959;28;20075;-83
2023/06/06 00:08:08;;;;;;;1999.90;999.90;;;19.10;99.90;;;;;;5035618;28;20119;-83
2023/06/06 00:10:34;;;;;;;1999.90;999.90;;;19.10;99.90;;;;;;5035659;28;20100;-83
2023/06/06 00:13:01;;;;;;;1999.90;999.90;;;19.00;99.90;;;;;;5040843;28;20440;-83
2023/06/06 00:15:28;;;;;;;1999.90;999.90;;;19.00;99.90;;;;;;5020008;28;20022;-83
2023/06/06 00:17:55;;;;;;;1999.90;999.90;;;19.00;99.90;;;;;;5024850;28;20112;-83
2023/06/06 00:20:22;;;;;;;1999.90;999.90;;;18.90;99.90;;;;;;5042469;28;20091;-83
2023/06/06 00:22:48;;;;;;;1999.90;999.90;;;18.90;99.90;;;;;;5038998;28;20064;-84
2023/06/06 00:25:15;;;;;;;1999.90;999.90;;;18.90;99.90;;;;;;5034594;28;20107;-83
2023/06/06 00:27:40;;;;;;;1999.90;999.90;;;18.80;99.90;;;;;;5017617;28;20026;-83
2023/06/06 00:30:07;;;;;;;1999.90;999.90;;;18.80;99.90;;;;;;5035592;28;20401;-83
2023/06/06 00:32:32;;;;;;;1999.90;999.90;;;18.70;99.90;;;;;;5035730;28;20507;-83
2023/06/06 00:34:58;;;;;;;1999.90;999.90;;;18.70;99.90;;;;;;5033560;28;20034;-83
2023/06/06 00:37:24;;;;;;;1999.90;999.90;;;18.70;99.90;;;;;;5035440;28;20160;-83
2023/06/06 00:39:50;;;;;;;1999.90;999.90;;;18.60;99.90;;;;;;5037764;28;20108;-83
2023/06/06 00:42:16;;;;;;;1999.90;999.90;;;18.60;99.90;;;;;;5039901;28;20392;-83
2023/06/06 00:44:41;;;;;;;1999.90;999.90;;;18.50;99.90;;;;;;5035309;28;20473;-83
2023/06/06 00:47:07;;;;;;;1999.90;999.90;;;18.50;99.90;;;;;;5037906;28;20033;-83
2023/06/06 00:49:36;;;;;;;1999.90;999.90;;;18.40;99.90;;;;;;5037802;28;20053;-83
2023/06/06 00:52:02;;;;;;;1999.90;999.90;;;18.40;99.90;;;;;;5035270;28;20385;-83
2023/06/06 00:54:30;;;;;;;1999.90;999.90;;;18.40;99.90;;;;;;5035269;28;20485;-83
2023/06/06 00:56:56;;;;;;;1999.90;999.90;;;18.40;99.90;;;;;;5034379;28;20116;-83
2023/06/06 00:59:23;;;;;;;1999.90;999.90;;;18.40;99.90;;;;;;5017177;28;20481;-83
2023/06/06 01:01:50;;;;;;;1999.90;999.90;;;18.40;99.90;;;;;;5033405;28;20051;-83
2023/06/06 01:04:15;;;;;;;1999.90;999.90;;;18.30;99.90;;;;;;5034652;28;20022;-83
2023/06/06 01:06:42;;;;;;;1999.90;999.90;;;18.30;99.90;;;;;;5034757;28;20029;-83
2023/06/06 01:09:11;;;;;;;1999.90;999.90;;;18.20;99.90;;;;;;5026146;28;20115;-83
2023/06/06 01:11:55;;;;;;;1999.90;999.90;;;18.20;99.90;;;;;;5013683;28;20022;-82
2023/06/06 01:14:35;;;;;;;1999.90;999.90;;;18.10;99.90;;;;;;5035074;28;20100;-82
2023/06/06 01:17:04;;;;;;;1999.90;999.90;;;18.10;99.90;;;;;;5034713;28;20028;-82
2023/06/06 01:19:32;;;;;;;1999.90;999.90;;;18.00;99.90;;;;;;5034242;28;20029;-82
2023/06/06 01:21:58;;;;;;;1999.90;999.90;;;18.00;99.90;;;;;;5034060;28;20561;-82
2023/06/06 01:24:26;;;;;;;1999.90;999.90;;;17.90;99.90;;;;;;5034723;28;20404;-82
2023/06/06 01:26:54;;;;;;;1999.90;999.90;;;17.90;99.90;;;;;;5033618;28;20111;-82
2023/06/06 01:29:20;;;;;;;1999.90;999.90;;;17.90;99.90;;;;;;5034713;28;20036;-82
2023/06/06 01:31:54;;;;;;;1999.90;999.90;;;17.90;99.90;;;;;;5034303;28;20018;-82
2023/06/06 01:34:45;;;;;;;1999.90;999.90;;;17.90;99.90;;;;;;5029905;28;20144;-81
2023/06/06 01:37:25;;;;;;;1999.90;999.90;;;17.80;99.90;;;;;;5013989;28;20053;-81
2023/06/06 01:39:55;;;;;;;1999.90;999.90;;;17.80;99.90;;;;;;5014363;28;20029;-82
2023/06/06 01:42:21;;;;;;;1999.90;999.90;;;17.80;99.90;;;;;;5014397;28;20374;-82
2023/06/06 01:44:50;;;;;;;1999.90;999.90;;;17.70;99.90;;;;;;5014624;28;20069;-82
2023/06/06 01:47:17;;;;;;;1999.90;999.90;;;17.70;99.90;;;;;;5014266;28;20030;-82
2023/06/06 01:49:44;;;;;;;1999.90;999.90;;;17.70;99.90;;;;;;5013951;28;20033;-82
2023/06/06 01:52:10;;;;;;;1999.90;999.90;;;17.70;99.90;;;;;;5013925;28;20493;-81
2023/06/06 01:54:40;;;;;;;1999.90;999.90;;;17.70;99.90;;;;;;5014165;28;20026;-82
2023/06/06 01:57:07;;;;;;;1999.90;999.90;;;17.70;99.90;;;;;;5014091;28;20072;-82
2023/06/06 01:59:33;;;;;;;1999.90;999.90;;;17.60;99.90;;;;;;5014178;28;20056;-82
2023/06/06 02:01:59;;;;;;;1999.90;999.90;;;17.60;99.90;;;;;;5025378;28;20040;-82
2023/06/06 02:04:24;;;;;;;1999.90;999.90;;;17.60;99.90;;;;;;5033465;28;20017;-82
2023/06/06 02:06:51;;;;;;;1999.90;999.90;;;17.50;99.90;;;;;;5033495;28;20056;-81
2023/06/06 02:09:17;;;;;;;1999.90;999.90;;;17.50;99.90;;;;;;5023885;28;20010;-82
2023/06/06 02:11:42;;;;;;;1999.90;999.90;;;17.50;99.90;;;;;;5014817;28;20037;-82
2023/06/06 02:14:09;;;;;;;1999.90;999.90;;;17.50;99.90;;;;;;5033671;28;20022;-82
2023/06/06 02:16:36;;;;;;;1999.90;999.90;;;17.40;99.90;;;;;;5033202;28;20548;-84
2023/06/06 02:19:02;;;;;;;1999.90;999.90;;;17.40;99.90;;;;;;5032857;28;20022;-84
2023/06/06 02:21:27;;;;;;;1999.90;999.90;;;17.40;99.90;;;;;;5033557;28;20021;-84
2023/06/06 02:23:53;;;;;;;1999.90;999.90;;;17.30;99.90;;;;;;5033288;28;20083;-84
2023/06/06 02:26:21;;;;;;;1999.90;999.90;;;17.30;99.90;;;;;;5015537;28;20030;-84
2023/06/06 02:28:47;;;;;;;1999.90;999.90;;;17.30;99.90;;;;;;5033479;28;20021;-84
2023/06/06 02:31:14;;;;;;;1999.90;999.90;;;17.40;99.90;;;;;;5033615;28;20182;-84
2023/06/06 02:33:40;;;;;;;1999.90;999.90;;;17.30;99.90;;;;;;5032987;28;20022;-84
2023/06/06 02:36:06;;;;;;;1999.90;999.90;;;17.30;99.90;;;;;;5013758;28;20044;-84
2023/06/06 02:38:33;;;;;;;1999.90;999.90;;;17.30;99.90;;;;;;5033215;28;20107;-84
2023/06/06 02:40:58;;;;;;;1999.90;999.90;;;17.20;99.90;;;;;;5033140;28;20029;-84
2023/06/06 02:43:24;;;;;;;1999.90;999.90;;;17.20;99.90;;;;;;5033114;28;20113;-84
2023/06/06 02:45:51;;;;;;;1999.90;999.90;;;17.10;99.90;;;;;;5032434;28;20021;-84
2023/06/06 02:48:16;;;;;;;1999.90;999.90;;;17.10;99.90;;;;;;5032996;28;20079;-84
2023/06/06 02:50:42;;;;;;;1999.90;999.90;;;17.10;99.90;;;;;;5032877;28;20029;-84
2023/06/06 02:53:08;;;;;;;1999.90;999.90;;;17.00;99.90;;;;;;5033024;28;20105;-84
2023/06/06 02:55:33;;;;;;;1999.90;999.90;;;17.00;99.90;;;;;;5033024;28;20079;-84
2023/06/06 02:57:59;;;;;;;1999.90;999.90;;;17.00;99.90;;;;;;5032847;28;20033;-84
2023/06/06 03:00:25;;;;;;;1999.90;999.90;;;17.00;99.90;;;;;;5032815;28;20033;-84
2023/06/06 03:02:50;;;;;;;1999.90;999.90;;;17.00;99.90;;;;;;5018660;28;20024;-84
2023/06/06 03:05:17;;;;;;;1999.90;999.90;;;17.00;99.90;;;;;;5033174;28;20488;-84
2023/06/06 03:07:42;;;;;;;1999.90;999.90;;;17.00;99.90;;;;;;5032878;28;20021;-82
2023/06/06 03:10:08;;;;;;;1999.90;999.90;;;16.90;99.90;;;;;;5032566;28;20025;-82
2023/06/06 03:12:34;;;;;;;1999.90;999.90;;;16.90;99.90;;;;;;5024669;28;20037;-82
2023/06/06 03:15:00;;;;;;;1999.90;999.90;;;16.90;99.90;;;;;;5012946;28;20022;-82
2023/06/06 03:17:25;;;;;;;1999.90;999.90;;;16.90;99.90;;;;;;5013152;28;20076;-82
2023/06/06 03:19:51;;;;;;;1999.90;999.90;;;16.90;99.90;;;;;;5013060;28;20052;-82
2023/06/06 03:22:17;;;;;;;1999.90;999.90;;;16.80;99.90;;;;;;5013100;28;20032;-81
2023/06/06 03:24:46;;;;;;;1999.90;999.90;;;16.80;99.90;;;;;;5012862;28;20026;-81
2023/06/06 03:27:13;;;;;;;1999.90;999.90;;;16.80;99.90;;;;;;5012760;28;20032;-81
2023/06/06 03:29:39;;;;;;;1999.90;999.90;;;16.80;99.90;;;;;;5013281;28;20026;-82
2023/06/06 03:32:08;;;;;;;1999.90;999.90;;;16.70;99.90;;;;;;5013119;28;20029;-82
2023/06/06 03:34:34;;;;;;;1999.90;999.90;;;16.70;99.90;;;;;;5028067;28;20029;-81
2023/06/06 03:36:59;;;;;;;1999.90;999.90;;;16.70;99.90;;;;;;5031505;28;20058;-82
2023/06/06 03:39:25;;;;;;;1999.90;999.90;;;16.70;99.90;;;;;;5032189;28;20045;-82
2023/06/06 03:41:51;;;;;;;1999.90;999.90;;;16.70;99.90;;;;;;5032381;28;20432;-82
2023/06/06 03:44:16;;;;;;;1999.90;999.90;;;16.70;99.90;;;;;;5032403;28;20030;-82
2023/06/06 03:46:42;;;;;;;1999.90;999.90;;;16.60;99.90;;;;;;5031850;28;20033;-82
2023/06/06 03:49:08;;;;;;;1999.90;999.90;;;16.60;99.90;;;;;;5032598;28;20486;-81
2023/06/06 03:51:33;;;;;;;1999.90;999.90;;;16.60;99.90;;;;;;5032027;28;20022;-82
2023/06/06 03:53:59;;;;;;;1999.90;999.90;;;16.50;99.90;;;;;;5032198;28;20029;-82
2023/06/06 03:56:27;;;;;;;1999.90;999.90;;;16.50;99.90;;;;;;5032593;28;20125;-82
2023/06/06 03:58:53;;;;;;;1999.90;999.90;;;16.40;99.90;;;;;;5033804;28;20013;-81
2023/06/06 04:01:20;;;;;;;1999.90;999.90;;;16.40;99.90;;;;;;5035367;28;20020;-81
2023/06/06 04:03:46;;;;;;;1999.90;999.90;;;16.40;99.90;;;;;;5035694;28;20374;-81
2023/06/06 04:06:12;;;;;;;1999.90;999.90;;;16.30;99.90;;;;;;5035869;28;20036;-81
2023/06/06 04:08:39;;;;;;;1999.90;999.90;;;16.40;99.90;;;;;;5031200;28;20101;-81
2023/06/06 04:11:05;;;;;;;1999.90;999.90;;;16.30;99.90;;;;;;5016241;28;20084;-81
2023/06/06 04:13:30;;;;;;;1999.90;999.90;;;16.30;99.90;;;;;;5031959;28;20385;-81
2023/06/06 04:15:56;;;;;;;1999.90;999.90;;;16.20;99.90;;;;;;5035008;28;20030;-81
2023/06/06 04:18:21;;;;;;;1999.90;999.90;;;16.20;99.90;;;;;;5017938;28;20121;-81
2023/06/06 04:20:47;;;;;;;1999.90;999.90;;;16.20;99.90;;;;;;5035141;28;20476;-81
2023/06/06 04:23:13;;;;;;;1999.90;999.90;;;16.20;99.90;;;;;;5035724;28;20022;-81
2023/06/06 04:25:38;;;;;;;1999.90;999.90;;;16.20;99.90;;;;;;5035553;28;20030;-82
2023/06/06 04:28:05;;;;;;;1999.90;999.90;;;16.20;99.90;;;;;;5035704;28;20033;-81
2023/06/06 04:30:32;;;;;;;1999.90;999.90;;;16.20;99.90;;;;;;5035550;28;20508;-81
2023/06/06 04:32:58;;;;;;;1999.90;999.90;;;16.10;99.90;;;;;;5035372;28;20385;-81
2023/06/06 04:35:24;;;;;;;1999.90;999.90;;;16.10;99.90;;;;;;5035316;28;20046;-81
2023/06/06 04:37:54;;;;;;;1999.90;999.90;;;16.10;99.90;;;;;;5016588;28;20052;-82
2023/06/06 04:40:21;;;;;;;1999.90;999.90;;;16.10;99.90;;;;;;5035320;28;20109;-81
2023/06/06 04:42:49;;;;;;;1999.90;999.90;;;16.20;99.90;;;;;;5035149;28;20079;-81
2023/06/06 04:45:15;;;;;;;1999.90;999.90;;;16.20;99.90;;;;;;5035125;28;20408;-81
2023/06/06 04:47:44;;;;;;;1999.90;999.90;;;16.20;99.90;;;;;;5035205;28;20028;-82
2023/06/06 04:50:10;;;;;;;1999.90;999.90;;;16.20;99.90;;;;;;5034978;28;20477;-82
2023/06/06 04:52:36;;;;;;;1999.90;999.90;;;16.30;99.90;;;;;;5035438;28;20021;-81
2023/06/06 04:55:04;;;;;;;1999.90;999.90;;;16.20;99.90;;;;;;5034967;28;20029;-82
2023/06/06 04:57:29;;;;;;;1999.90;999.90;;;16.30;99.90;;;;;;5033095;28;20081;-81
2023/06/06 04:59:56;;;;;;;1999.90;999.90;;;16.30;99.90;;;;;;5012604;28;20029;-81
2023/06/06 05:02:28;;;;;;;1999.90;999.90;;;16.30;99.90;;;;;;5017083;28;20034;-81
2023/06/06 05:04:56;;;;;;;1999.90;999.90;;;16.40;99.90;;;;;;5034877;28;20088;-81
2023/06/06 05:07:23;;;;;;;1999.90;999.90;;;16.40;99.90;;;;;;5016885;28;20080;-82
2023/06/06 05:09:50;;;;;;;1999.90;999.90;;;16.40;99.90;;;;;;5033560;28;20415;-81
2023/06/06 05:12:16;;;;;;;1999.90;999.90;;;16.40;99.90;;;;;;5034295;28;20009;-82
2023/06/06 05:14:41;;;;;;;1999.90;999.90;;;16.40;99.90;;;;;;5034190;28;20468;-81
2023/06/06 05:17:07;;;;;;;1999.90;999.90;;;16.50;99.90;;;;;;5034050;28;20022;-82
2023/06/06 05:19:32;;;;;;;1999.90;999.90;;;16.60;99.90;;;;;;5034343;28;20029;-82
2023/06/06 05:21:58;;;;;;;1999.90;999.90;;;16.60;99.90;;;;;;5034179;28;20025;-81
2023/06/06 05:24:23;;;;;;;1999.90;999.90;;;16.70;99.90;;;;;;5034117;28;20079;-81
2023/06/06 05:26:49;;;;;;;1999.90;999.90;;;16.80;99.90;;;;;;5034298;28;20052;-81
2023/06/06 05:29:15;;;;;;;1999.90;999.90;;;16.80;99.90;;;;;;5031994;28;20026;-81
2023/06/06 05:31:41;;;;;;;1999.90;999.90;;;16.90;99.90;;;;;;5010692;28;20057;-82
2023/06/06 05:34:06;;;;;;;1999.90;999.90;;;17.00;99.90;;;;;;5032035;28;20030;-81
2023/06/06 05:36:32;;;;;;;1999.90;999.90;;;17.00;99.90;;;;;;5029152;28;20103;-81
2023/06/06 05:38:59;;;;;;;1999.90;999.90;;;17.10;99.90;;;;;;5026726;28;20030;-81
2023/06/06 05:41:25;;;;;;;1999.90;999.90;;;17.10;99.90;;;;;;5017183;28;20033;-81
2023/06/06 05:43:51;;;;;;;1999.90;999.90;;;17.20;99.90;;;;;;5033368;28;20060;-81
2023/06/06 05:46:17;;;;;;;1999.90;999.90;;;17.30;99.90;;;;;;5033686;28;20021;-81
2023/06/06 05:48:43;;;;;;;1999.90;999.90;;;17.40;99.90;;;;;;5014877;28;20456;-81
2023/06/06 05:51:09;;;;;;;1999.90;999.90;;;17.40;99.90;;;;;;5031558;28;20124;-81
2023/06/06 05:53:39;;;;;;;1999.90;999.90;;;17.50;99.90;;;;;;5013850;28;20029;-82
2023/06/06 05:56:05;;;;;;;1999.90;999.90;;;17.60;99.90;;;;;;5032905;28;20104;-81
2023/06/06 05:58:31;;;;;;;1999.90;999.90;;;17.60;99.90;;;;;;5033255;28;20039;-81
2023/06/06 06:00:57;;;;;;;1999.90;999.90;;;17.70;99.90;;;;;;5020875;28;20021;-83
2023/06/06 06:03:24;;;;;;;1999.90;999.90;;;17.80;99.90;;;;;;5024973;28;20335;-83
2023/06/06 06:05:50;;;;;;;1999.90;999.90;;;17.80;99.90;;;;;;5027257;28;20464;-82
2023/06/06 06:08:17;;;;;;;1999.90;999.90;;;17.90;99.90;;;;;;5026749;28;20072;-83
2023/06/06 06:10:43;;;;;;;1999.90;999.90;;;18.00;99.90;;;;;;5031195;28;20030;-84
2023/06/06 06:13:08;;;;;;;1999.90;999.90;;;18.10;99.90;;;;;;5031278;28;20067;-82
2023/06/06 06:15:35;;;;;;;1999.90;999.90;;;18.10;99.90;;;;;;5021914;28;20030;-83
2023/06/06 06:18:02;;;;;;;1999.90;999.90;;;18.20;99.90;;;;;;5028864;28;20040;-83
2023/06/06 06:20:28;;;;;;;1999.90;999.90;;;18.40;99.90;;;;;;5025877;28;20512;-83
2023/06/06 06:22:54;;;;;;;1999.90;999.90;;;18.40;99.90;;;;;;5022886;28;20021;-84
2023/06/06 06:25:20;;;;;;;1999.90;999.90;;;18.50;99.90;;;;;;5027775;28;20033;-78
2023/06/06 06:27:46;;;;;;;1999.90;999.90;;;18.60;99.90;;;;;;5030309;28;20450;-78
2023/06/06 06:30:13;;;;;;;1999.90;999.90;;;18.70;99.90;;;;;;5030070;28;20025;-78
2023/06/06 06:32:41;;;;;;;1999.90;999.90;;;18.80;99.90;;;;;;5029243;28;20089;-76
2023/06/06 06:35:08;;;;;;;1999.90;999.90;;;18.80;99.90;;;;;;5026744;28;20046;-77
2023/06/06 06:37:37;;;;;;;1999.90;999.90;;;19.00;99.90;;;;;;5027576;28;20033;-76
2023/06/06 06:40:09;;;;;;;1999.90;999.90;;;19.00;99.90;;;;;;5028873;28;20079;-76
2023/06/06 06:42:39;;;;;;;1999.90;999.90;;;19.00;99.90;;;;;;5025635;28;20112;-78
2023/06/06 06:45:07;;;;;;;1999.90;999.90;;;19.20;99.90;;;;;;5027277;28;20087;-77
2023/06/06 06:47:32;;;;;;;1999.90;999.90;;;19.30;99.90;;;;;;5029744;28;20021;-77
2023/06/06 06:49:58;;;;;;;1999.90;999.90;;;19.40;99.90;;;;;;5026828;28;20044;-77
2023/06/06 06:52:24;;;;;;;1999.90;999.90;;;19.50;99.90;;;;;;5028592;28;20518;-77
2023/06/06 06:54:54;;;;;;;1999.90;999.90;;;19.60;99.90;;;;;;5029003;28;20099;-77
2023/06/06 06:57:23;;;;;;;1999.90;999.90;;;19.80;99.90;;;;;;5022070;28;20877;-77
2023/06/06 06:59:48;;;;;;;1999.90;999.90;;;19.90;99.90;;;;;;5008082;28;20041;-78
2023/06/06 07:02:15;;;;;;;1999.90;999.90;;;20.00;99.90;;;;;;5028270;28;20041;-78
2023/06/06 07:04:40;;;;;;;1999.90;999.90;;;20.10;99.90;;;;;;5029563;28;20040;-78
2023/06/06 07:07:07;;;;;;;1999.90;999.90;;;20.10;99.90;;;;;;5029600;28;20025;-78
2023/06/06 07:09:32;;;;;;;1999.90;999.90;;;20.30;99.90;;;;;;5025274;28;20523;-79
2023/06/06 07:11:58;;;;;;;1999.90;999.90;;;20.50;99.90;;;;;;5008844;28;20050;-79
2023/06/06 07:14:28;;;;;;;1999.90;999.90;;;20.60;99.90;;;;;;5024273;28;20037;-79
2023/06/06 07:16:54;;;;;;;1999.90;999.90;;;20.70;99.90;;;;;;5026509;28;20073;-79
2023/06/06 07:19:20;;;;;;;1999.90;999.90;;;20.80;99.90;;;;;;5020339;28;20061;-79
2023/06/06 07:21:46;;;;;;;1999.90;999.90;;;20.90;99.90;;;;;;5021215;28;20022;-78
2023/06/06 07:24:12;;;;;;;1999.90;999.90;;;21.00;99.90;;;;;;5025337;28;20029;-79
2023/06/06 07:26:37;;;;;;;1999.90;999.90;;;21.20;99.90;;;;;;5028677;28;20072;-80
2023/06/06 07:29:03;;;;;;;1999.90;999.90;;;21.50;99.90;;;;;;5025537;28;20030;-82
2023/06/06 07:31:29;;;;;;;1999.90;999.90;;;22.00;99.90;;;;;;5023234;28;20029;-78
2023/06/06 07:33:55;;;;;;;1999.90;999.90;;;23.90;99.90;;;;;;5031340;28;20507;-83
2023/06/06 07:36:21;;;;;;;1999.90;999.90;;;25.60;99.90;;;;;;5026119;28;20045;-81
2023/06/06 07:38:46;;;;;;;1999.90;999.90;;;26.60;98.00;;;;;;5020757;28;20400;-81
2023/06/06 07:41:12;;;;;;;1999.90;999.90;;;27.10;97.00;;;;;;5028748;28;20056;-79
2023/06/06 07:43:38;;;;;;;1999.90;999.90;;;27.40;96.40;;;;;;5025859;28;20036;-79
2023/06/06 07:46:03;;;;;;;1999.90;999.90;;;27.90;96.20;;;;;;5030069;28;20044;-78
2023/06/06 07:48:29;;;;;;;1999.90;999.90;;;28.40;94.90;;;;;;5025141;28;20028;-80
2023/06/06 07:50:55;;;;;;;1999.90;999.90;;;28.50;94.70;;;;;;5028669;28;20033;-82
2023/06/06 07:53:20;;;;;;;1999.90;999.90;;;28.70;94.40;;;;;;5033352;28;20052;-84
2023/06/06 07:55:47;;;;;;;1999.90;999.90;;;29.00;94.10;;;;;;5031690;28;20030;-87
2023/06/06 07:58:12;;;;;;;1999.90;999.90;;;29.50;93.40;;;;;;5020348;28;20119;-85
2023/06/06 08:00:42;;;;;;;1999.90;999.90;;;30.20;92.50;;;;;;5013416;28;20080;-81
2023/06/06 08:03:09;;;;;;;1999.90;999.90;;;30.20;92.40;;;;;;5022951;28;20028;-80
2023/06/06 08:05:36;;;;;;;1999.90;999.90;;;30.10;92.00;;;;;;5018750;28;20036;-81
2023/06/06 08:08:02;;;;;;;1999.90;999.90;;;30.80;91.90;;;;;;5010118;28;20021;-79
2023/06/06 08:10:28;;;;;;;1999.90;999.90;;;31.70;91.00;;;;;;5027289;28;20036;-81
2023/06/06 08:12:53;;;;;;;1999.90;999.90;;;31.70;90.30;;;;;;5025178;28;20025;-81
2023/06/06 08:15:19;;;;;;;1999.90;999.90;;;32.10;90.10;;;;;;5024956;28;20083;-81
2023/06/06 08:17:45;;;;;;;1999.90;999.90;;;32.00;89.40;;;;;;5031717;28;20026;-80
2023/06/06 08:20:11;;;;;;;1999.90;999.90;;;32.20;89.00;;;;;;5031841;28;20044;-80
2023/06/06 08:22:40;;;;;;;1999.90;999.90;;;32.30;88.40;;;;;;5032074;28;20025;-79
2023/06/06 08:25:07;;;;;;;1999.90;999.90;;;32.90;88.40;;;;;;5019786;28;20081;-80
2023/06/06 08:27:34;;;;;;;1999.90;999.90;;;33.20;87.30;;;;;;5013734;28;20549;-80
2023/06/06 08:30:00;;;;;;;1999.90;999.90;;;33.70;85.60;;;;;;5031538;28;20058;-79
2023/06/06 08:32:26;;;;;;;1999.90;999.90;;;33.50;85.30;;;;;;5027558;28;20045;-80
2023/06/06 08:34:53;;;;;;;1999.90;999.90;;;33.90;84.70;;;;;;5031535;28;20108;-80
2023/06/06 08:37:19;;;;;;;1999.90;999.90;;;34.00;84.60;;;;;;5031526;28;20040;-80
2023/06/06 08:39:47;;;;;;;1999.90;999.90;;;34.50;83.00;;;;;;5030290;28;20037;-80
2023/06/06 08:42:17;;;;;;;1999.90;999.90;;;34.60;82.20;;;;;;5028916;28;20033;-80
2023/06/06 08:44:43;;;;;;;1999.90;999.90;;;34.00;82.20;;;;;;5029416;28;20029;-81
2023/06/06 08:47:10;;;;;;;1999.90;999.90;;;34.30;81.20;;;;;;5030576;28;20455;-78
2023/06/06 08:49:37;;;;;;;1999.90;999.90;;;34.10;83.30;;;;;;5030451;28;20029;-78
2023/06/06 08:52:05;;;;;;;1999.90;999.90;;;34.60;82.50;;;;;;4996871;28;20536;-78
2023/06/06 08:54:32;;;;;;;1999.90;999.90;;;34.60;82.70;;;;;;5029785;28;20025;-78
2023/06/06 08:56:59;;;;;;;1999.90;999.90;;;34.90;81.40;;;;;;5023361;28;20030;-78
2023/06/06 08:59:25;;;;;;;1999.90;999.90;;;35.00;81.20;;;;;;5030083;28;20543;-80
2023/06/06 09:01:53;;;;;;;1999.90;999.90;;;35.20;80.50;;;;;;5030371;28;20043;-79
2023/06/06 09:04:20;;;;;;;1999.90;999.90;;;35.20;80.80;;;;;;5028886;28;20087;-77
2023/06/06 09:06:46;;;;;;;1999.90;999.90;;;35.30;79.80;;;;;;5010975;28;20061;-77
2023/06/06 09:09:12;;;;;;;1999.90;999.90;;;35.10;78.90;;;;;;5029610;28;20056;-77
2023/06/06 09:11:38;;;;;;;1999.90;999.90;;;35.80;80.10;;;;;;5031591;28;20029;-79
2023/06/06 09:14:05;;;;;;;1999.90;999.90;;;35.70;78.20;;;;;;5030595;28;20481;-79
2023/06/06 09:16:32;;;;;;;1999.90;999.90;;;35.60;77.70;;;;;;5027380;28;20033;-79
2023/06/06 09:18:58;;;;;;;1999.90;999.90;;;35.40;78.70;;;;;;5029435;28;20036;-79
2023/06/06 09:21:33;;;;;;;1999.90;999.90;;;35.10;78.40;;;;;;5029450;28;20033;-79
2023/06/06 09:23:59;;;;;;;1999.90;999.90;;;35.40;77.70;;;;;;5024177;28;20508;-78
2023/06/06 09:26:25;;;;;;;1999.90;999.90;;;35.20;77.10;;;;;;5024119;28;20042;-79
2023/06/06 09:28:51;;;;;;;1999.90;999.90;;;35.50;77.60;;;;;;5024529;28;20121;-79
2023/06/06 09:31:27;;;;;;;1999.90;999.90;;;36.10;79.00;;;;;;5031228;28;20100;-79
2023/06/06 09:33:54;;;;;;;1999.90;999.90;;;36.20;78.40;;;;;;5030851;28;20025;-79
2023/06/06 09:36:29;;;;;;;1999.90;999.90;;;36.00;77.90;;;;;;5029985;28;20060;-80
2023/06/06 09:39:10;;;;;;;1999.90;999.90;;;35.20;77.60;;;;;;5031075;28;20116;-80
2023/06/06 09:41:46;;;;;;;1999.90;999.90;;;35.50;78.90;;;;;;5030010;28;20075;-79
2023/06/06 09:44:25;;;;;;;1999.90;999.90;;;35.70;78.00;;;;;;5029915;28;20025;-80
2023/06/06 09:47:01;;;;;;;1999.90;999.90;;;35.90;77.50;;;;;;5030430;28;20029;-81
2023/06/06 09:49:37;;;;;;;1999.90;999.90;;;35.40;78.20;;;;;;5022431;28;20485;-79
2023/06/06 09:52:03;;;;;;;1999.90;999.90;;;35.20;77.90;;;;;;5021604;28;20021;-79
2023/06/06 09:54:29;;;;;;;1999.90;999.90;;;35.40;78.00;;;;;;5025839;28;20083;-80
2023/06/06 09:56:55;;;;;;;1999.90;999.90;;;35.70;78.00;;;;;;5030230;28;20033;-79
2023/06/06 09:59:25;;;;;;;1999.90;999.90;;;36.00;76.50;;;;;;5004675;28;20037;-80
2023/06/06 10:01:57;;;;;;;1999.90;999.90;;;36.20;76.70;;;;;;5028805;28;20064;-81
2023/06/06 10:04:25;;;;;;;1999.90;999.90;;;36.10;75.80;;;;;;5028343;28;20033;-81
2023/06/06 10:06:53;;;;;;;1999.90;999.90;;;36.30;75.50;;;;;;5028685;28;20051;-80
2023/06/06 10:09:19;;;;;;;1999.90;999.90;;;36.10;74.30;;;;;;5022889;28;20029;-80
2023/06/06 10:11:46;;;;;;;1999.90;999.90;;;35.90;74.00;;;;;;5030061;28;20047;-80
2023/06/06 10:14:14;;;;;;;1999.90;999.90;;;36.00;74.80;;;;;;5028821;28;20477;-78
2023/06/06 10:16:40;;;;;;;1999.90;999.90;;;35.80;74.50;;;;;;5028085;28;20018;-81
2023/06/06 10:19:08;;;;;;;1999.90;999.90;;;36.20;74.20;;;;;;5028501;28;20039;-77
2023/06/06 10:21:35;;;;;;;1999.90;999.90;;;35.90;73.50;;;;;;5024012;28;20026;-78
2023/06/06 10:24:01;;;;;;;1999.90;999.90;;;35.90;73.50;;;;;;5031966;28;20036;-79
2023/06/06 10:26:50;;;;;;;1999.90;999.90;;;35.80;72.50;;;;;;5030459;28;20080;-79
2023/06/06 10:29:41;;;;;;;1999.90;999.90;;;36.00;72.70;;;;;;5015932;28;20041;-79
2023/06/06 10:32:15;;;;;;;1999.90;999.90;;;35.20;72.90;;;;;;5024187;28;20116;-77
2023/06/06 10:34:47;;;;;;;1999.90;999.90;;;35.10;73.80;;;;;;5028109;28;20045;-79
2023/06/06 10:37:17;;;;;;;1999.90;999.90;;;35.60;73.40;;;;;;5032207;28;20545;-79
2023/06/06 10:39:47;;;;;;;1999.90;999.90;;;35.30;72.90;;;;;;5031217;28;20033;-77
2023/06/06 10:42:13;;;;;;;1999.90;999.90;;;35.40;73.80;;;;;;5030252;28;20057;-77
2023/06/06 10:44:55;;;;;;;1999.90;999.90;;;36.10;73.80;;;;;;5020881;28;20072;-77
2023/06/06 10:47:21;;;;;;;1999.90;999.90;;;36.00;72.60;;;;;;5029262;28;20029;-78
2023/06/06 10:50:11;;;;;;;1999.90;999.90;;;35.50;72.80;;;;;;5029068;28;20049;-77
2023/06/06 10:52:59;;;;;;;1999.90;999.90;;;36.20;72.90;;;;;;5015604;28;20061;-76
2023/06/06 10:55:25;;;;;;;1999.90;999.90;;;36.30;71.30;;;;;;5030310;28;20029;-78
2023/06/06 10:58:03;;;;;;;1999.90;999.90;;;36.00;71.80;;;;;;5025055;28;20029;-78
2023/06/06 11:00:35;;;;;;;1999.90;999.90;;;36.40;72.00;;;;;;5026405;28;20025;-78
2023/06/06 11:03:05;;;;;;;1999.90;999.90;;;36.40;71.80;;;;;;5026662;28;20109;-76
2023/06/06 11:05:31;;;;;;;1999.90;999.90;;;36.20;72.20;;;;;;5020293;28;20037;-76
2023/06/06 11:08:01;;;;;;;1999.90;999.90;;;36.30;72.20;;;;;;5024234;28;20029;-77
2023/06/06 11:10:27;;;;;;;1999.90;999.90;;;37.10;72.30;;;;;;5021105;28;20055;-77
2023/06/06 11:12:54;;;;;;;1999.90;999.90;;;37.10;71.00;;;;;;5024684;28;20029;-77
2023/06/06 11:15:32;;;;;;;1999.90;999.90;;;36.30;71.90;;;;;;5019132;28;20139;-78
2023/06/06 11:18:04;;;;;;;1999.90;999.90;;;35.60;70.80;;;;;;5021065;28;20488;-77
2023/06/06 11:20:38;;;;;;;1999.90;999.90;;;36.40;70.00;;;;;;5024090;28;20511;-79
2023/06/06 11:23:05;;;;;;;1999.90;999.90;;;35.70;69.50;;;;;;5017240;28;20408;-77
2023/06/06 11:25:37;;;;;;;1999.90;999.90;;;35.80;70.70;;;;;;5024639;28;20140;-77
2023/06/06 11:28:05;;;;;;;1999.90;999.90;;;36.00;69.60;;;;;;5021990;28;20025;-79
2023/06/06 11:30:35;;;;;;;1999.90;999.90;;;36.00;68.40;;;;;;5028512;28;20029;-78
2023/06/06 11:33:01;;;;;;;1999.90;999.90;;;36.50;69.00;;;;;;5008531;28;20038;-78
2023/06/06 11:35:32;;;;;;;1999.90;999.90;;;36.30;69.70;;;;;;5026343;28;20529;-79
2023/06/06 11:37:58;;;;;;;1999.90;999.90;;;36.60;67.30;;;;;;5026601;28;20034;-77
2023/06/06 11:40:28;;;;;;;1999.90;999.90;;;36.80;67.80;;;;;;5028391;28;20104;-77
2023/06/06 11:42:54;;;;;;;1999.90;999.90;;;37.10;67.50;;;;;;5027859;28;20108;-77
2023/06/06 11:45:20;;;;;;;1999.90;999.90;;;36.80;67.90;;;;;;5027687;28;20120;-78
2023/06/06 11:47:46;;;;;;;1999.90;999.90;;;36.90;69.30;;;;;;5028477;28;20033;-77
2023/06/06 11:50:12;;;;;;;1999.90;999.90;;;36.60;67.90;;;;;;5021048;28;20022;-79
2023/06/06 11:52:50;;;;;;;1999.90;999.90;;;36.20;68.30;;;;;;5023910;28;20117;-79
2023/06/06 11:55:17;;;;;;;1999.90;999.90;;;36.10;68.80;;;;;;5022316;28;20026;-79
2023/06/06 11:57:43;;;;;;;1999.90;999.90;;;36.10;69.20;;;;;;5027823;28;20459;-79
2023/06/06 12:00:15;;;;;;;1999.90;999.90;;;35.80;69.10;;;;;;5025493;28;21169;-77